Kezdőlap
METAR-TAF:

METAR-TAF

Repülőterek :

Hanoi, Vietnam

földrajzi szélesség: 21-01N, földrajzi hosszúság: 105-48E, magasság: 6 m

Jelenlegi meteorológiai megfigyelések

A jelentés 38 perccel ezelõtt készült, 22:30 UTC
Nyugat-északnyugati szél 3 kt
Hőmérséklet 20°C
Páratartalom 78%
Légköri nyomás 1014 hPa
Látótávolság: 8000 m

METAR: VVNB 242230Z 30003KT 8000 NSC 20/16 Q1014 NOSIG

Idő: 06:08 (23:08 UTC)

Előrejelzés

A jelentés 6 órával és 8 perccel ezelõtt készült, 17:00 UTC
Az előrejelzés 24-én 18 óra UTC és 25-én 18 óra UTC között érvényes
Északi szél 6 kt
Látótávolság: 6000 m
Kevés felhő 2500 lábon
25-én 08 óra UTC és 25-én 13 óra UTC között ideiglenes
Látótávolság: 4000 m
Szórványos felhőzet 1700 lábon
Szakadozott felhőzet 4000 lábon
esõ

TAF: VVNB 241700Z 2418/2518 35006KT 6000 FEW025 TEMPO 2508/2513 4000 RA SCT017 BKN040

Meteorológiai megfigyelések és előrejelzések több, mint 4000 repülőtéren (METAR és TAF jelentéseket).

A térképen piros és sárga pontok jelzik az elérhető meteorológiai állomásokat.

Mozgassa az egeret a pont fölött, hogy megjelenjen az állomás neve.

Azután kattintson az időjárási megfigyelések és előrejelzések megtekintéséhez.

A térkép megváltoztatása: kattintson a fekete keresztel jelölt zöld gombra ráközelítéshez, a vonallal jelölt zöld gombra távolításhoz, vagy a zöld nyilakra a szomszédos térképek eléréséhez.


METAR-TAF: